Terminal Aerodrome Forecast
Issued by NWS

Home | Current Version | Previous Version | Text Only | Print | Product List | Glossary On
Versions: 1 2 3 4 5 6 7 8 9 10 11 12 13 14 15 16 17 18 19 20 21 22 23 24
000
FTUS46 KPDT 172320
TAFRDM
TAF
KRDM 172320Z 1800/1824 18012G20KT P6SM FEW050 BKN150 OVC250
     FM180200 18012KT P6SM SCT060 BKN150 OVC250
     FM180700 19010KT P6SM -SHRA BKN030 OVC050
     FM181500 20012KT P6SM VCSH BKN050 OVC100
     FM181900 25012G18KT P6SM SCT050 BKN100=

USA.gov is the U.S. government's official web portal to all federal, state and local government web resources and services.